Glouster Point, Virginia
Current Conditions -  °F | °C
As of 6:54 AM on Friday 28 Nov 2014 (Local Time) from KPHF Reporting Station
Clear Clear  
Wind Chill: 29°   Ceiling: Unl
Heat Index: 34°   Visibility: 10mi
Dew Point: 24°   Wind: 6mph
Humidity: 67%   Direction: 320°NW
Pressure: 30.28"   Gusts: NA
Location:  37.2577°N, 76.4965°W
Report Text: KPHF 281154Z 32005KT 10SM CLR 01/M04 A3028 RMK AO2 SLP252 70005 T00111044 10033 20011 51016
Loading
Personal Weather Stations






























Interactive Weather Map New forecast layout! Learn more

10-Day Weather Forecast

Advertisements
Track Severe Weather on mobile